Kugluktuk Airport
CYCO : now visible

Airfield :











YOU CAN JOIN US ON...

 
LOGIN :

Register | Disclaimer

   EN    FR    IT 

 









Legend :    VFR   Marginal VFR   IFR   Intensive IFR   Very Intensive IFR
Visi :
Ceiling :
>= 8 km
>= 3000ft
5 to 8 km
1000 to 3000 ft
1500m to 5 km
500 to 1000 ft
800 to 1500m
200 to 500 ft
< 800m
< 200 ft
Symbols :   Thunderstorms  Fog  Heavy snow  Heavy precipitations  Wind > 20 kt






- Airport Elevation : 74 ft
- IATA code : YCO


CYCO - Kugluktuk

CURRENT METAR :
  • 121900Z 09013G20KT 8SM -RA FEW005 SCT021 BKN042 OVC070 06/05 A2980 RMK SF1SC3SC3AS1 SLP094

EXPIRED METARs :
  • 121800Z 08016G21KT 6SM -RA BR FEW005 BKN044 OVC070 05/05 A2980 RMK SF1SC5AS2 SLP094
  • 121722Z 08017KT 6SM -RA BR FEW005 OVC038 04/04 A2980 RMK SF1SC7 SLP094
  • 121700Z 07014G20KT 6SM -RA BR FEW010 OVC040 04/04 A2980 RMK SF1SC7 SLP096

TAF TAF CYCO
Valid from the 12 at 19:00 until the 13 at 07:00 UTC


121838Z 1219/1307 08015G25KT 6SM -RA SCT015 OVC040
TEMPO 1219/1221 3SM -RA BR BKN015 OVC040
FM122100 08018G28KT P6SM SCT012 OVC025
TEMPO 1221/1307 5SM -RA BR OVC012
BECMG 1301/1303 09012KT RMK NXT FCST BY 130100Z
CZEG FIR / North America



MET'MAP, your aeronautical weather chart ! - Copyright ORBIFLY December 2007 - Disclaimer

ORBIFLY MET'MAP TEAM :

Programming & Development : Alexandra Zaïnal
Concept & original design : Baudouin d'Aumeries
Assistance for programming : Marc-Olivier Méhu
Technical & hardware support : Manuel Goepfert

Contact : metmap@orbifly.com




SOURCES & CREDITS :

   NOAA       Earth
Advisory